Huvudsida
METAR-TAF:

METAR-TAF

Flygplatser :

Åbo, Finland

Åbo flygplats

latitud: 60-31N, longitud: 022-16E, höjd: 49 m

Aktuellt väderrapport

Denna rapport gjordes för 12 minuter sedan, klockan 03:20 UTC
Vind 3 kt från ost
Temperatur -6°C
Fuktighet 93%
Tryck 999 hPa
Sikt 10 km eller mer
lätt snö

METAR: EFTU 190320Z AUTO 09003KT 9999 -SN OVC013/// M06/M07 Q0999

Tid: 05:32 (03:32 UTC)

Väderprognos

Denna rapport gjordes för 1 timme och 2 minuter sedan, klockan 02:30 UTC
Prognos gäller från 19 kl. 03 UTC till 20 kl. 03 UTC
Vind 5 kt från ost
Sikt: 8000 m
Få moln på en höjd av 1000 ft
Brutna moln på en höjd av 2000 ft
lätt snö
Temporärt
från 19 kl. 03 UTC till 19 kl. 08 UTC
Sikt: 4000 m
lätt snö

TAF: EFTU 190230Z 1903/2003 08005KT 8000 -SN FEW010 BKN020 TEMPO 1903/1908 4000 -SN

Aktuella väderrapporter och prognoser från 4000 flygplatser (METAR- och TAF-rapporter).

De tillgängliga stationerna syns som gula och röda prickar på kartan.

För musen över prickarna för att se namnen på stationerna.

Klicka sedan för att få väderrapporter och prognoser.

För att ändra kartan: Klicka på de gröna knapparna med ett svart kors på för att zooma in; den gröna knappen med ett streck på för att zooma ut; eller på de gröna pilarna för angränsande kartor.


METAR-TAF: